Terminal Aerodrome Forecast
Issued by NWS

Home | Current Version | Previous Version | Text Only | Print | Product List | Glossary On
Versions: 1 2 3 4 5 6 7 8 9 10 11
000
FTUS45 KGJT 192332
TAFCNY
TAF
KCNY 192332Z 2000/2024 21012KT P6SM VCSH SCT035 BKN070
      TEMPO 2000/2002 21017G26KT
     FM200400 31008KT P6SM SCT045 OVC070
     FM200900 28011KT P6SM SCT060 OVC090=

USA.gov is the U.S. government's official web portal to all federal, state and local government web resources and services.